aviador You're here:

KCBE Decoded Metar

CUMBERLAND REG in MD, USA
Report Time2017-08-16 19:10:00
UTC Time2017-08-16 19:33:30
Flight Rules vfr VFR
Wind340° at 08 kt
W.Decomp.*RWY 29: 4.0 kt HW 6.9 kt RCW
RWY 05: 4.0 kt HW 6.9 kt LCW
W.Rank340° ranks 4
Current wind is above 340° avg. (6.1)
Visibility9999 m
Phenomena:N/A
Clouds:N/A
Expected CloudBase > 5,600 ft AGL from Temp-Dew spread
CeilingNone
Temp31°C (ISA +18)
Dew Point17°C (43% RH)
Heat Index31.4°C
AAT30.5°C
QNH1018 hPa
Density Alt2,871 ft
Elevation774 ft
Report Wrong Elevation
Raw Report
KCBE 161910Z AUTO 34008KT 10SM CLR 31/17 A3005 RMK AO1=

Extra information for KCBE:More info

Metar Taf Metar & Taf Last 4 Metars F.Rules Stats Wind Profile Meteogram Temp Stats Airport Information Weather charts Add Link Nearby VenuesMetar ALERT Operation Metar Decoded Social comments

AIRNAV info for KCBE